createdAt,value
2022-07-25T04:13:40.393Z,100531.03
2022-07-25T04:16:43.694Z,100531.03
2022-07-25T04:19:46.420Z,100531.09
2022-07-25T04:22:49.227Z,100527.31
2022-07-25T04:25:51.718Z,100533.53
2022-07-25T04:28:54.550Z,100537.19
2022-07-25T04:31:58.174Z,100535.56
2022-07-25T04:35:01.117Z,100542.03
2022-07-25T04:38:05.636Z,100551.50
2022-07-25T04:41:11.779Z,100544.78
2022-07-25T04:44:14.241Z,100544.16
2022-07-25T04:47:17.059Z,100539.94
2022-07-25T04:50:24.790Z,100539.25
2022-07-25T04:53:28.175Z,100537.69
2022-07-25T04:56:30.810Z,100546.78
2022-07-25T04:59:33.589Z,100533.69
2022-07-25T05:02:36.559Z,100532.44
2022-07-25T05:05:39.342Z,100537.88
2022-07-25T05:08:41.831Z,100535.94
2022-07-25T05:11:47.993Z,100535.31
2022-07-25T05:14:54.200Z,100537.88
2022-07-25T05:17:56.985Z,100535.06
2022-07-25T05:20:59.566Z,100531.87
2022-07-25T05:24:02.371Z,100527.63
2022-07-25T05:27:05.640Z,100529.72
2022-07-25T05:30:13.074Z,100528.13
2022-07-25T05:33:15.690Z,100524.66
2022-07-25T05:36:18.517Z,100522.88
2022-07-25T05:39:21.815Z,100519.47
2022-07-25T05:42:24.676Z,100520.09
2022-07-25T05:45:27.920Z,100517.59
2022-07-25T05:48:31.950Z,100517.31
2022-07-25T05:51:34.618Z,100516.13
2022-07-25T05:54:37.506Z,100514.63
2022-07-25T05:57:39.984Z,100516.62
2022-07-25T06:00:42.981Z,100521.97
2022-07-25T06:03:47.658Z,100512.72
2022-07-25T06:06:53.173Z,100517.81
2022-07-25T06:09:55.945Z,100515.59
2022-07-25T06:12:58.397Z,100516.38
2022-07-25T06:16:01.649Z,100515.09
2022-07-25T06:19:04.632Z,100516.69
2022-07-25T06:22:09.349Z,100521.44
2022-07-25T06:25:12.751Z,100516.56
2022-07-25T06:28:15.698Z,100508.34
2022-07-25T06:31:21.032Z,100512.25
2022-07-25T06:34:28.271Z,100506.59
2022-07-25T06:37:31.275Z,100504.63
2022-07-25T06:40:34.023Z,100497.09
2022-07-25T06:43:36.549Z,100502.25
2022-07-25T06:46:39.355Z,100504.59
2022-07-25T06:49:42.723Z,100494.41
2022-07-25T06:52:46.247Z,100490.97
2022-07-25T06:55:48.909Z,100489.06
2022-07-25T06:58:53.377Z,100497.84
2022-07-25T07:01:55.909Z,100484.75
2022-07-25T07:04:58.683Z,100493.88
2022-07-25T07:08:01.559Z,100480.28
2022-07-25T07:11:06.175Z,100481.00
2022-07-25T07:14:09.235Z,100479.41
2022-07-25T07:17:12.494Z,100468.47
2022-07-25T07:20:15.082Z,100471.53
2022-07-25T07:23:18.853Z,100479.78
2022-07-25T07:26:22.282Z,100479.34
2022-07-25T07:29:25.066Z,100464.03
2022-07-25T07:32:27.529Z,100475.34
2022-07-25T07:35:30.594Z,100469.22
2022-07-25T07:38:39.932Z,100472.34
2022-07-25T07:41:42.958Z,100469.53
2022-07-25T07:44:45.498Z,100473.81
2022-07-25T07:47:50.086Z,100472.13
2022-07-25T07:50:53.524Z,100463.44
2022-07-25T07:54:14.873Z,100473.72
2022-07-25T07:57:17.395Z,100468.75
2022-07-25T08:00:21.409Z,100464.03
2022-07-25T08:03:24.249Z,100469.16
2022-07-25T08:06:27.906Z,100472.69
2022-07-25T08:09:30.677Z,100471.50
2022-07-25T08:12:33.200Z,100468.53
2022-07-25T08:15:36.142Z,100458.44
2022-07-25T08:18:38.710Z,100455.81
2022-07-25T08:21:46.862Z,100445.53
2022-07-25T08:24:49.997Z,100447.34
2022-07-25T08:27:53.383Z,100452.00
2022-07-25T08:30:56.263Z,100439.03
2022-07-25T08:33:59.217Z,100439.50
2022-07-25T08:37:02.595Z,100435.41
2022-07-25T08:40:06.061Z,100430.22
2022-07-25T08:43:13.389Z,100430.81
2022-07-25T08:46:16.521Z,100437.81
2022-07-25T08:49:19.473Z,100428.69
2022-07-25T08:52:23.943Z,100427.31
2022-07-25T08:55:28.719Z,100421.22
2022-07-25T08:58:31.703Z,100425.41
2022-07-25T09:01:35.060Z,100418.31
2022-07-25T09:04:38.247Z,100423.72
2022-07-25T09:07:41.967Z,100423.25
2022-07-25T09:10:50.363Z,100408.59
2022-07-25T09:14:01.586Z,100407.66
2022-07-25T09:17:07.041Z,100400.72
2022-07-25T09:20:44.423Z,100396.06
2022-07-25T09:23:47.795Z,100400.13
2022-07-25T09:26:53.320Z,100397.34
2022-07-25T09:29:56.171Z,100400.50
2022-07-25T09:33:02.218Z,100395.12
2022-07-25T09:36:11.975Z,100390.34
2022-07-25T09:39:14.560Z,100390.00
2022-07-25T09:42:37.276Z,100395.19
2022-07-25T09:45:49.818Z,100383.06
2022-07-25T09:48:58.846Z,100382.72
2022-07-25T09:52:01.687Z,100383.03
2022-07-25T09:55:06.606Z,100389.34
2022-07-25T09:58:09.301Z,100368.69
2022-07-25T10:01:20.561Z,100365.97
2022-07-25T10:04:37.348Z,100361.81
2022-07-25T10:07:45.623Z,100353.13
2022-07-25T10:10:48.823Z,100348.16
2022-07-25T10:13:53.410Z,100349.00
2022-07-25T10:16:56.519Z,100356.22
2022-07-25T10:20:01.309Z,100347.19
2022-07-25T10:23:05.152Z,100338.84
2022-07-25T10:26:21.852Z,100339.03
2022-07-25T10:29:34.287Z,100335.09
2022-07-25T10:32:36.895Z,100331.41
2022-07-25T10:35:40.342Z,100335.09
2022-07-25T10:38:46.199Z,100318.94
2022-07-25T10:41:54.094Z,100325.81
2022-07-25T10:44:59.856Z,100315.50
2022-07-25T10:48:07.455Z,100312.66
2022-07-25T10:51:12.657Z,100295.25
2022-07-25T10:54:18.684Z,100299.38
2022-07-25T10:57:22.053Z,100290.06
2022-07-25T11:00:25.471Z,100291.16
2022-07-25T11:03:33.439Z,100290.06
2022-07-25T11:06:42.537Z,100285.44
2022-07-25T11:09:55.781Z,100281.78
2022-07-25T11:12:58.496Z,100277.50
2022-07-25T11:16:01.228Z,100271.13
2022-07-25T11:19:04.377Z,100270.84
2022-07-25T11:22:08.380Z,100260.47
2022-07-25T11:25:14.367Z,100259.31
2022-07-25T11:28:16.981Z,100253.87
2022-07-25T11:31:26.219Z,100250.06
2022-07-25T11:34:31.933Z,100245.50
2022-07-25T11:37:39.947Z,100239.75
2022-07-25T11:40:44.304Z,100240.13
2022-07-25T11:43:50.369Z,100231.66
2022-07-25T11:46:52.952Z,100231.13
2022-07-25T11:49:59.077Z,100222.97
2022-07-25T11:53:07.602Z,100224.63
2022-07-25T11:59:46.240Z,100214.41
2022-07-25T12:02:51.628Z,100216.56
2022-07-25T12:05:55.104Z,100210.44
2022-07-25T12:08:57.617Z,100206.94
2022-07-25T12:12:04.531Z,100196.31
2022-07-25T12:15:07.429Z,100199.91
2022-07-25T12:18:12.465Z,100196.19
2022-07-25T12:21:15.122Z,100187.91
2022-07-25T12:24:18.453Z,100179.66
2022-07-25T12:27:20.964Z,100175.75
2022-07-25T12:30:23.867Z,100171.19
2022-07-25T12:33:26.384Z,100175.97
2022-07-25T12:36:29.222Z,100154.12
2022-07-25T12:39:32.088Z,100154.59
2022-07-25T12:42:35.266Z,100150.13
2022-07-25T12:45:37.978Z,100149.34
2022-07-25T12:48:40.900Z,100154.56
2022-07-25T12:51:43.456Z,100145.75
2022-07-25T12:54:46.400Z,100140.44
2022-07-25T12:57:50.311Z,100135.78
2022-07-25T13:00:56.894Z,100130.06
2022-07-25T13:04:02.165Z,100117.72
2022-07-25T13:07:05.411Z,100112.97
2022-07-25T13:10:08.643Z,100110.56
2022-07-25T13:13:11.821Z,100106.97
2022-07-25T13:16:14.498Z,100107.09
2022-07-25T13:19:17.582Z,100103.53
2022-07-25T13:22:20.110Z,100091.22
2022-07-25T13:25:23.000Z,100098.44
2022-07-25T13:28:25.726Z,100090.06
2022-07-25T13:31:28.651Z,100081.81
2022-07-25T13:34:31.223Z,100086.03
2022-07-25T13:37:34.088Z,100077.28
2022-07-25T13:40:41.840Z,100070.38
2022-07-25T13:43:44.761Z,100065.84
2022-07-25T13:46:50.078Z,100057.72
2022-07-25T13:49:53.438Z,100065.22
2022-07-25T13:52:57.275Z,100052.44
2022-07-25T13:56:00.426Z,100053.50
2022-07-25T13:59:05.036Z,100043.34
2022-07-25T14:02:12.700Z,100044.78
2022-07-25T14:05:15.846Z,100032.09
2022-07-25T14:08:18.890Z,100041.25
2022-07-25T14:11:23.134Z,100029.59
2022-07-25T14:14:27.424Z,100027.50
2022-07-25T14:17:30.693Z,100016.34
2022-07-25T14:20:33.531Z,100010.81
2022-07-25T14:23:36.388Z,100005.72
2022-07-25T14:26:39.264Z,100006.06
2022-07-25T14:29:42.291Z,100003.81
2022-07-25T14:32:44.815Z,100001.88
2022-07-25T14:35:47.716Z,99996.28
2022-07-25T14:38:50.343Z,99995.00
2022-07-25T14:41:53.201Z,99994.06
2022-07-25T14:44:55.663Z,99987.94
2022-07-25T14:47:59.340Z,99986.94
2022-07-25T14:51:01.835Z,99982.44
2022-07-25T14:54:05.166Z,99975.03
2022-07-25T14:57:10.672Z,99970.06
2022-07-25T15:00:13.980Z,99965.72
2022-07-25T15:03:16.520Z,99962.84
2022-07-25T15:06:19.705Z,99954.87
2022-07-25T15:09:25.169Z,99950.75
2022-07-25T15:12:28.062Z,99948.94
2022-07-25T15:15:30.706Z,99936.22
2022-07-25T15:18:52.141Z,99940.09
2022-07-25T15:21:55.078Z,99939.34
